sensor_id;sensor_type;location;lat;lon;timestamp;pressure;altitude;pressure_sealevel;temperature;humidity
51287;BME280;37364;46.974;18.916;2023-11-19T00:01:48;150382.63;;;0.11;100.00
51287;BME280;37364;46.974;18.916;2023-11-19T00:04:27;150385.22;;;0.12;100.00
51287;BME280;37364;46.974;18.916;2023-11-19T00:06:59;150381.34;;;0.11;100.00
51287;BME280;37364;46.974;18.916;2023-11-19T00:09:36;150394.22;;;0.16;100.00
51287;BME280;37364;46.974;18.916;2023-11-19T00:12:12;150364.69;;;0.04;100.00
51287;BME280;37364;46.974;18.916;2023-11-19T00:14:52;150377.47;;;0.09;100.00
51287;BME280;37364;46.974;18.916;2023-11-19T00:17:27;150367.22;;;0.05;100.00
51287;BME280;37364;46.974;18.916;2023-11-19T00:20:03;150359.53;;;0.02;100.00
51287;BME280;37364;46.974;18.916;2023-11-19T00:22:40;150344.09;;;-0.04;100.00
51287;BME280;37364;46.974;18.916;2023-11-19T00:25:22;150344.09;;;-0.04;100.00
51287;BME280;37364;46.974;18.916;2023-11-19T00:27:56;150319.69;;;-0.14;100.00
51287;BME280;37364;46.974;18.916;2023-11-19T00:30:34;150310.72;;;-0.17;100.00
51287;BME280;37364;46.974;18.916;2023-11-19T00:33:09;150299.16;;;-0.22;100.00
51287;BME280;37364;46.974;18.916;2023-11-19T00:35:43;150306.88;;;-0.19;100.00
51287;BME280;37364;46.974;18.916;2023-11-19T00:38:19;150301.75;;;-0.21;100.00
51287;BME280;37364;46.974;18.916;2023-11-19T00:40:55;150283.75;;;-0.28;100.00
51287;BME280;37364;46.974;18.916;2023-11-19T00:43:33;150281.19;;;-0.29;100.00
51287;BME280;37364;46.974;18.916;2023-11-19T00:46:13;150267.06;;;-0.35;100.00
51287;BME280;37364;46.974;18.916;2023-11-19T00:48:50;150273.47;;;-0.32;100.00
51287;BME280;37364;46.974;18.916;2023-11-19T00:51:25;150265.75;;;-0.35;100.00
51287;BME280;37364;46.974;18.916;2023-11-19T00:54:03;150277.34;;;-0.31;100.00
51287;BME280;37364;46.974;18.916;2023-11-19T00:56:38;150286.34;;;-0.27;100.00
51287;BME280;37364;46.974;18.916;2023-11-19T00:59:09;150282.47;;;-0.29;100.00
51287;BME280;37364;46.974;18.916;2023-11-19T01:01:46;150246.53;;;-0.43;100.00
51287;BME280;37364;46.974;18.916;2023-11-19T01:04:20;150249.09;;;-0.42;100.00
51287;BME280;37364;46.974;18.916;2023-11-19T01:06:58;150236.22;;;-0.47;100.00
51287;BME280;37364;46.974;18.916;2023-11-19T01:09:35;150233.69;;;-0.48;100.00
51287;BME280;37364;46.974;18.916;2023-11-19T01:12:09;150232.41;;;-0.49;100.00
51287;BME280;37364;46.974;18.916;2023-11-19T01:14:49;150237.53;;;-0.47;100.00
51287;BME280;37364;46.974;18.916;2023-11-19T01:17:25;150250.34;;;-0.42;100.00
51287;BME280;37364;46.974;18.916;2023-11-19T01:20:00;150265.75;;;-0.35;100.00
51287;BME280;37364;46.974;18.916;2023-11-19T01:22:36;150278.59;;;-0.30;100.00
51287;BME280;37364;46.974;18.916;2023-11-19T01:25:14;150276.06;;;-0.31;100.00
51287;BME280;37364;46.974;18.916;2023-11-19T01:27:47;150276.06;;;-0.31;100.00
51287;BME280;37364;46.974;18.916;2023-11-19T01:30:23;150260.63;;;-0.37;100.00
51287;BME280;37364;46.974;18.916;2023-11-19T01:33:03;150252.94;;;-0.41;100.00
51287;BME280;37364;46.974;18.916;2023-11-19T01:35:35;150237.53;;;-0.47;100.00
51287;BME280;37364;46.974;18.916;2023-11-19T01:38:13;150245.22;;;-0.44;100.00
51287;BME280;37364;46.974;18.916;2023-11-19T01:40:45;150249.09;;;-0.42;100.00
51287;BME280;37364;46.974;18.916;2023-11-19T01:43:31;150259.34;;;-0.38;100.00
51287;BME280;37364;46.974;18.916;2023-11-19T01:46:10;150278.59;;;-0.30;100.00
51287;BME280;37364;46.974;18.916;2023-11-19T01:48:46;150270.88;;;-0.33;100.00
51287;BME280;37364;46.974;18.916;2023-11-19T01:51:25;150246.53;;;-0.43;100.00
51287;BME280;37364;46.974;18.916;2023-11-19T01:53:58;150246.53;;;-0.43;100.00
51287;BME280;37364;46.974;18.916;2023-11-19T01:56:43;150243.94;;;-0.44;100.00
51287;BME280;37364;46.974;18.916;2023-11-19T01:59:14;150231.09;;;-0.49;100.00
51287;BME280;37364;46.974;18.916;2023-11-19T02:01:49;150211.81;;;-0.57;100.00
51287;BME280;37364;46.974;18.916;2023-11-19T02:04:33;150183.63;;;-0.68;100.00
51287;BME280;37364;46.974;18.916;2023-11-19T02:07:06;150200.28;;;-0.62;100.00
51287;BME280;37364;46.974;18.916;2023-11-19T02:09:42;150190.03;;;-0.66;100.00
51287;BME280;37364;46.974;18.916;2023-11-19T02:12:17;150192.63;;;-0.65;100.00
51287;BME280;37364;46.974;18.916;2023-11-19T02:14:55;150178.50;;;-0.70;100.00
51287;BME280;37364;46.974;18.916;2023-11-19T02:17:33;150190.03;;;-0.66;100.00
51287;BME280;37364;46.974;18.916;2023-11-19T02:20:08;150209.28;;;-0.58;100.00
51287;BME280;37364;46.974;18.916;2023-11-19T02:22:42;150209.28;;;-0.58;100.00
51287;BME280;37364;46.974;18.916;2023-11-19T02:25:34;150188.75;;;-0.66;100.00
51287;BME280;37364;46.974;18.916;2023-11-19T02:28:12;150163.09;;;-0.76;100.00
51287;BME280;37364;46.974;18.916;2023-11-19T02:30:46;150148.97;;;-0.82;100.00
51287;BME280;37364;46.974;18.916;2023-11-19T02:33:21;150141.25;;;-0.85;100.00
51287;BME280;37364;46.974;18.916;2023-11-19T02:35:54;150138.72;;;-0.86;100.00
51287;BME280;37364;46.974;18.916;2023-11-19T02:38:30;150151.50;;;-0.81;100.00
51287;BME280;37364;46.974;18.916;2023-11-19T02:41:03;150184.91;;;-0.68;100.00
51287;BME280;37364;46.974;18.916;2023-11-19T02:43:39;150199.03;;;-0.62;100.00
51287;BME280;37364;46.974;18.916;2023-11-19T02:46:11;150177.19;;;-0.71;100.00
51287;BME280;37364;46.974;18.916;2023-11-19T02:48:48;150150.25;;;-0.82;100.00
51287;BME280;37364;46.974;18.916;2023-11-19T02:51:21;150137.38;;;-0.87;100.00
51287;BME280;37364;46.974;18.916;2023-11-19T02:53:55;150150.25;;;-0.82;100.00
51287;BME280;37364;46.974;18.916;2023-11-19T02:56:29;150165.63;;;-0.75;100.00
51287;BME280;37364;46.974;18.916;2023-11-19T02:59:07;150152.78;;;-0.81;100.00
51287;BME280;37364;46.974;18.916;2023-11-19T03:01:50;150151.50;;;-0.81;100.00
51287;BME280;37364;46.974;18.916;2023-11-19T03:04:23;150133.53;;;-0.88;100.00
51287;BME280;37364;46.974;18.916;2023-11-19T03:06:56;150134.84;;;-0.88;100.00
51287;BME280;37364;46.974;18.916;2023-11-19T03:09:30;150134.84;;;-0.88;100.00
51287;BME280;37364;46.974;18.916;2023-11-19T03:12:05;150132.25;;;-0.89;100.00
51287;BME280;37364;46.974;18.916;2023-11-19T03:14:45;150150.25;;;-0.82;100.00
51287;BME280;37364;46.974;18.916;2023-11-19T03:17:22;150156.66;;;-0.79;100.00
51287;BME280;37364;46.974;18.916;2023-11-19T03:20:08;150133.53;;;-0.88;100.00
51287;BME280;37364;46.974;18.916;2023-11-19T03:22:47;150123.28;;;-0.92;100.00
51287;BME280;37364;46.974;18.916;2023-11-19T03:25:20;150125.84;;;-0.91;100.00
51287;BME280;37364;46.974;18.916;2023-11-19T03:27:51;150114.31;;;-0.96;100.00
51287;BME280;37364;46.974;18.916;2023-11-19T03:30:24;150152.78;;;-0.81;100.00
51287;BME280;37364;46.974;18.916;2023-11-19T03:32:59;150147.66;;;-0.83;100.00
51287;BME280;37364;46.974;18.916;2023-11-19T03:35:34;150133.53;;;-0.88;100.00
51287;BME280;37364;46.974;18.916;2023-11-19T03:38:14;150133.53;;;-0.88;100.00
51287;BME280;37364;46.974;18.916;2023-11-19T03:40:47;150120.72;;;-0.93;100.00
51287;BME280;37364;46.974;18.916;2023-11-19T03:43:20;150109.19;;;-0.98;100.00
51287;BME280;37364;46.974;18.916;2023-11-19T03:45:55;150109.19;;;-0.98;100.00
51287;BME280;37364;46.974;18.916;2023-11-19T03:48:30;150091.22;;;-1.05;100.00
51287;BME280;37364;46.974;18.916;2023-11-19T03:51:04;150110.47;;;-0.97;100.00
51287;BME280;37364;46.974;18.916;2023-11-19T03:53:35;150109.19;;;-0.98;100.00
51287;BME280;37364;46.974;18.916;2023-11-19T03:56:10;150097.63;;;-1.03;100.00
51287;BME280;37364;46.974;18.916;2023-11-19T03:58:43;150096.34;;;-1.03;100.00
51287;BME280;37364;46.974;18.916;2023-11-19T04:01:20;150074.50;;;-1.12;100.00
51287;BME280;37364;46.974;18.916;2023-11-19T04:04:04;150056.56;;;-1.19;100.00
51287;BME280;37364;46.974;18.916;2023-11-19T04:06:46;150060.44;;;-1.17;100.00
51287;BME280;37364;46.974;18.916;2023-11-19T04:09:20;150045.00;;;-1.24;100.00
51287;BME280;37364;46.974;18.916;2023-11-19T04:11:52;150061.69;;;-1.17;100.00
51287;BME280;37364;46.974;18.916;2023-11-19T04:14:24;150056.56;;;-1.19;100.00
51287;BME280;37364;46.974;18.916;2023-11-19T04:16:58;150043.72;;;-1.24;100.00
51287;BME280;37364;46.974;18.916;2023-11-19T04:19:33;150050.13;;;-1.22;100.00
51287;BME280;37364;46.974;18.916;2023-11-19T04:22:09;150046.31;;;-1.23;100.00
51287;BME280;37364;46.974;18.916;2023-11-19T04:24:44;150029.59;;;-1.30;100.00
51287;BME280;37364;46.974;18.916;2023-11-19T04:27:15;150020.63;;;-1.33;100.00
51287;BME280;37364;46.974;18.916;2023-11-19T04:29:45;150014.22;;;-1.36;100.00
51287;BME280;37364;46.974;18.916;2023-11-19T04:32:22;150009.09;;;-1.38;100.00
51287;BME280;37364;46.974;18.916;2023-11-19T04:34:54;149970.59;;;-1.53;100.00
51287;BME280;37364;46.974;18.916;2023-11-19T04:37:34;149982.16;;;-1.49;100.00
51287;BME280;37364;46.974;18.916;2023-11-19T04:40:07;149991.09;;;-1.45;100.00
51287;BME280;37364;46.974;18.916;2023-11-19T04:42:44;149985.97;;;-1.47;100.00
51287;BME280;37364;46.974;18.916;2023-11-19T04:45:20;149943.69;;;-1.64;100.00
51287;BME280;37364;46.974;18.916;2023-11-19T04:47:54;149959.06;;;-1.58;100.00
51287;BME280;37364;46.974;18.916;2023-11-19T04:50:25;149961.59;;;-1.57;100.00
51287;BME280;37364;46.974;18.916;2023-11-19T04:53:08;149974.44;;;-1.52;100.00
51287;BME280;37364;46.974;18.916;2023-11-19T04:55:46;149987.28;;;-1.47;100.00
51287;BME280;37364;46.974;18.916;2023-11-19T04:58:18;149994.97;;;-1.44;100.00
51287;BME280;37364;46.974;18.916;2023-11-19T05:00:56;150000.09;;;-1.42;100.00
51287;BME280;37364;46.974;18.916;2023-11-19T05:03:36;150020.63;;;-1.33;100.00
51287;BME280;37364;46.974;18.916;2023-11-19T05:06:08;150043.72;;;-1.24;100.00
51287;BME280;37364;46.974;18.916;2023-11-19T05:08:41;150038.59;;;-1.26;100.00
51287;BME280;37364;46.974;18.916;2023-11-19T05:11:12;150057.84;;;-1.18;100.00
51287;BME280;37364;46.974;18.916;2023-11-19T05:13:48;150060.44;;;-1.17;100.00
51287;BME280;37364;46.974;18.916;2023-11-19T05:16:26;150074.50;;;-1.12;100.00
51287;BME280;37364;46.974;18.916;2023-11-19T05:19:07;150078.34;;;-1.10;100.00
51287;BME280;37364;46.974;18.916;2023-11-19T05:21:44;150095.06;;;-1.04;100.00
51287;BME280;37364;46.974;18.916;2023-11-19T05:24:22;150101.47;;;-1.01;100.00
51287;BME280;37364;46.974;18.916;2023-11-19T05:26:56;150106.59;;;-0.99;100.00
51287;BME280;37364;46.974;18.916;2023-11-19T05:29:31;150116.88;;;-0.95;100.00
51287;BME280;37364;46.974;18.916;2023-11-19T05:32:04;150129.72;;;-0.90;100.00
51287;BME280;37364;46.974;18.916;2023-11-19T05:34:49;150156.66;;;-0.79;100.00
51287;BME280;37364;46.974;18.916;2023-11-19T05:37:24;150173.38;;;-0.72;100.00
51287;BME280;37364;46.974;18.916;2023-11-19T05:40:09;150174.63;;;-0.72;100.00
51287;BME280;37364;46.974;18.916;2023-11-19T05:42:51;150190.03;;;-0.66;100.00
51287;BME280;37364;46.974;18.916;2023-11-19T05:45:27;150191.31;;;-0.65;100.00
51287;BME280;37364;46.974;18.916;2023-11-19T05:48:02;150214.41;;;-0.56;100.00
51287;BME280;37364;46.974;18.916;2023-11-19T05:50:36;150220.81;;;-0.53;100.00
51287;BME280;37364;46.974;18.916;2023-11-19T05:53:13;150224.69;;;-0.52;100.00
51287;BME280;37364;46.974;18.916;2023-11-19T05:55:56;150227.28;;;-0.51;100.00
51287;BME280;37364;46.974;18.916;2023-11-19T05:58:33;150245.22;;;-0.44;100.00
51287;BME280;37364;46.974;18.916;2023-11-19T06:01:08;150243.94;;;-0.44;100.00
51287;BME280;37364;46.974;18.916;2023-11-19T06:03:48;150246.53;;;-0.43;100.00
51287;BME280;37364;46.974;18.916;2023-11-19T06:06:27;150255.47;;;-0.40;100.00
51287;BME280;37364;46.974;18.916;2023-11-19T06:09:03;150255.47;;;-0.40;100.00
51287;BME280;37364;46.974;18.916;2023-11-19T06:11:38;150259.34;;;-0.38;100.00
51287;BME280;37364;46.974;18.916;2023-11-19T06:14:10;150274.75;;;-0.32;100.00
51287;BME280;37364;46.974;18.916;2023-11-19T06:16:46;150292.75;;;-0.25;100.00
51287;BME280;37364;46.974;18.916;2023-11-19T06:19:21;150294.00;;;-0.24;100.00
51287;BME280;37364;46.974;18.916;2023-11-19T06:22:03;150297.88;;;-0.23;100.00
51287;BME280;37364;46.974;18.916;2023-11-19T06:24:35;150314.56;;;-0.16;100.00
51287;BME280;37364;46.974;18.916;2023-11-19T06:27:17;150335.13;;;-0.08;100.00
51287;BME280;37364;46.974;18.916;2023-11-19T06:29:52;150356.94;;;0.01;100.00
51287;BME280;37364;46.974;18.916;2023-11-19T06:32:29;150377.47;;;0.09;100.00
51287;BME280;37364;46.974;18.916;2023-11-19T06:35:25;150371.09;;;0.07;100.00
51287;BME280;37364;46.974;18.916;2023-11-19T06:38:28;150403.16;;;0.19;100.00
51287;BME280;37364;46.974;18.916;2023-11-19T06:41:37;150419.91;;;0.26;100.00
51287;BME280;37364;46.974;18.916;2023-11-19T06:44:52;150455.84;;;0.41;100.00
51287;BME280;37364;46.974;18.916;2023-11-19T06:47:36;150480.25;;;0.50;100.00
51287;BME280;37364;46.974;18.916;2023-11-19T06:51:50;150525.22;;;0.68;100.00
51287;BME280;37364;46.974;18.916;2023-11-19T06:53:45;150538.09;;;0.73;100.00
51287;BME280;37364;46.974;18.916;2023-11-19T06:56:43;150566.38;;;0.85;100.00
51287;BME280;37364;46.974;18.916;2023-11-19T07:00:36;150598.47;;;0.97;100.00
51287;BME280;37364;46.974;18.916;2023-11-19T07:04:18;150624.19;;;1.08;100.00
51287;BME280;37364;46.974;18.916;2023-11-19T07:07:20;150685.91;;;1.32;100.00
51287;BME280;37364;46.974;18.916;2023-11-19T07:10:31;150719.34;;;1.46;100.00
51287;BME280;37364;46.974;18.916;2023-11-19T07:13:51;150751.47;;;1.58;100.00
51287;BME280;37364;46.974;18.916;2023-11-19T07:17:13;150806.81;;;1.81;100.00
51287;BME280;37364;46.974;18.916;2023-11-19T07:20:17;150844.09;;;1.95;100.00
51287;BME280;37364;46.974;18.916;2023-11-19T07:26:35;150903.25;;;2.19;100.00
51287;BME280;37364;46.974;18.916;2023-11-19T07:29:52;150913.53;;;2.23;100.00
51287;BME280;37364;46.974;18.916;2023-11-19T07:32:58;150914.88;;;2.24;100.00
51287;BME280;37364;46.974;18.916;2023-11-19T07:36:24;150938.00;;;2.33;100.00
51287;BME280;37364;46.974;18.916;2023-11-19T07:39:08;150911.00;;;2.22;100.00
51287;BME280;37364;46.974;18.916;2023-11-19T07:42:18;150885.28;;;2.12;100.00
51287;BME280;37364;46.974;18.916;2023-11-19T07:44:57;150847.94;;;1.97;100.00
51287;BME280;37364;46.974;18.916;2023-11-19T07:48:13;150847.94;;;1.97;100.00
51287;BME280;37364;46.974;18.916;2023-11-19T07:51:14;150858.25;;;2.01;100.00
51287;BME280;37364;46.974;18.916;2023-11-19T07:54:16;150868.53;;;2.05;100.00
51287;BME280;37364;46.974;18.916;2023-11-19T07:57:32;150846.69;;;1.96;100.00
51287;BME280;37364;46.974;18.916;2023-11-19T08:00:21;150844.09;;;1.95;100.00
51287;BME280;37364;46.974;18.916;2023-11-19T08:04:06;150871.13;;;2.06;100.00
51287;BME280;37364;46.974;18.916;2023-11-19T08:07:16;150907.13;;;2.21;100.00
51287;BME280;37364;46.974;18.916;2023-11-19T08:10:26;150927.69;;;2.29;100.00
51287;BME280;37364;46.974;18.916;2023-11-19T08:13:26;150918.69;;;2.25;100.00
51287;BME280;37364;46.974;18.916;2023-11-19T08:16:31;150934.16;;;2.31;100.00
51287;BME280;37364;46.974;18.916;2023-11-19T08:19:29;150970.19;;;2.46;100.00
51287;BME280;37364;46.974;18.916;2023-11-19T08:22:58;150985.63;;;2.52;100.00
51287;BME280;37364;46.974;18.916;2023-11-19T08:26:01;151020.38;;;2.66;100.00
51287;BME280;37364;46.974;18.916;2023-11-19T08:29:23;150980.47;;;2.50;100.00
51287;BME280;37364;46.974;18.916;2023-11-19T08:32:42;150984.34;;;2.51;100.00
51287;BME280;37364;46.974;18.916;2023-11-19T08:35:39;151011.34;;;2.62;100.00
51287;BME280;37364;46.974;18.916;2023-11-19T08:39:00;151047.41;;;2.76;100.00
51287;BME280;37364;46.974;18.916;2023-11-19T08:41:33;151015.22;;;2.64;100.00
51287;BME280;37364;46.974;18.916;2023-11-19T08:44:46;151031.94;;;2.70;100.00
51287;BME280;37364;46.974;18.916;2023-11-19T08:47:30;151083.44;;;2.91;100.00
51287;BME280;37364;46.974;18.916;2023-11-19T08:50:25;151075.69;;;2.88;100.00
51287;BME280;37364;46.974;18.916;2023-11-19T08:53:04;151065.41;;;2.84;100.00
51287;BME280;37364;46.974;18.916;2023-11-19T08:56:00;151119.47;;;3.05;100.00
51287;BME280;37364;46.974;18.916;2023-11-19T08:58:35;151123.34;;;3.07;100.00
51287;BME280;37364;46.974;18.916;2023-11-19T09:01:22;151154.25;;;3.19;100.00
51287;BME280;37364;46.974;18.916;2023-11-19T09:04:07;151142.66;;;3.14;100.00
51287;BME280;37364;46.974;18.916;2023-11-19T09:06:48;151182.56;;;3.30;100.00
51287;BME280;37364;46.974;18.916;2023-11-19T09:09:30;151186.44;;;3.32;100.00
51287;BME280;37364;46.974;18.916;2023-11-19T09:12:23;151249.56;;;3.57;100.00
51287;BME280;37364;46.974;18.916;2023-11-19T09:15:31;151271.44;;;3.66;100.00
51287;BME280;37364;46.974;18.916;2023-11-19T09:18:27;151323.00;;;3.86;100.00
51287;BME280;37364;46.974;18.916;2023-11-19T09:21:01;151328.16;;;3.88;100.00
51287;BME280;37364;46.974;18.916;2023-11-19T09:23:59;151288.22;;;3.72;100.00
51287;BME280;37364;46.974;18.916;2023-11-19T09:26:32;151329.41;;;3.89;100.00
51287;BME280;37364;46.974;18.916;2023-11-19T09:29:31;151347.47;;;3.96;100.00
51287;BME280;37364;46.974;18.916;2023-11-19T09:32:13;151338.44;;;3.92;100.00
51287;BME280;37364;46.974;18.916;2023-11-19T09:35:11;151356.44;;;4.00;100.00
51287;BME280;37364;46.974;18.916;2023-11-19T09:37:54;151382.25;;;4.10;100.00
51287;BME280;37364;46.974;18.916;2023-11-19T09:40:32;151393.84;;;4.14;100.00
51287;BME280;37364;46.974;18.916;2023-11-19T09:43:07;151371.94;;;4.06;100.00
51287;BME280;37364;46.974;18.916;2023-11-19T09:46:04;151419.59;;;4.25;100.00
51287;BME280;37364;46.974;18.916;2023-11-19T09:48:53;151437.66;;;4.32;100.00
51287;BME280;37364;46.974;18.916;2023-11-19T09:51:53;151464.69;;;4.43;100.00
51287;BME280;37364;46.974;18.916;2023-11-19T09:54:49;151413.16;;;4.22;100.00
51287;BME280;37364;46.974;18.916;2023-11-19T09:58:08;151405.41;;;4.19;100.00
51287;BME280;37364;46.974;18.916;2023-11-19T10:00:50;151424.75;;;4.27;100.00
51287;BME280;37364;46.974;18.916;2023-11-19T10:04:07;151453.13;;;4.38;100.00
51287;BME280;37364;46.974;18.916;2023-11-19T10:06:44;151475.00;;;4.47;100.00
51287;BME280;37364;46.974;18.916;2023-11-19T10:10:00;151490.50;;;4.53;100.00
51287;BME280;37364;46.974;18.916;2023-11-19T10:12:36;151472.44;;;4.46;100.00
51287;BME280;37364;46.974;18.916;2023-11-19T10:15:25;151472.44;;;4.46;100.00
51287;BME280;37364;46.974;18.916;2023-11-19T10:18:09;151482.75;;;4.50;100.00
51287;BME280;37364;46.974;18.916;2023-11-19T10:20:58;151482.75;;;4.50;100.00
51287;BME280;37364;46.974;18.916;2023-11-19T10:23:51;151498.22;;;4.56;100.00
51287;BME280;37364;46.974;18.916;2023-11-19T10:26:31;151542.06;;;4.73;100.00
51287;BME280;37364;46.974;18.916;2023-11-19T10:29:04;151549.81;;;4.77;100.00
51287;BME280;37364;46.974;18.916;2023-11-19T10:31:58;151538.16;;;4.72;100.00
51287;BME280;37364;46.974;18.916;2023-11-19T10:35:08;151591.03;;;4.93;100.00
51287;BME280;37364;46.974;18.916;2023-11-19T10:37:42;151634.88;;;5.10;100.00
51287;BME280;37364;46.974;18.916;2023-11-19T10:40:38;151629.72;;;5.08;100.00
51287;BME280;37364;46.974;18.916;2023-11-19T10:43:14;151633.63;;;5.10;100.00
51287;BME280;37364;46.974;18.916;2023-11-19T10:48:54;151618.16;;;5.04;100.00
51287;BME280;37364;46.974;18.916;2023-11-19T10:51:54;151647.81;;;5.15;100.00
51287;BME280;37364;46.974;18.916;2023-11-19T10:54:48;151663.28;;;5.22;100.00
51287;BME280;37364;46.974;18.916;2023-11-19T10:57:21;151686.44;;;5.31;100.00
51287;BME280;37364;46.974;18.916;2023-11-19T11:00:23;151692.94;;;5.33;100.00
51287;BME280;37364;46.974;18.916;2023-11-19T11:03:01;151692.94;;;5.33;100.00
51287;BME280;37364;46.974;18.916;2023-11-19T11:05:47;151703.25;;;5.38;100.00
51287;BME280;37364;46.974;18.916;2023-11-19T11:08:25;151672.31;;;5.25;100.00
51287;BME280;37364;46.974;18.916;2023-11-19T11:11:04;151687.78;;;5.31;100.00
51287;BME280;37364;46.974;18.916;2023-11-19T11:13:53;151669.72;;;5.24;100.00
51287;BME280;37364;46.974;18.916;2023-11-19T11:16:33;151680.03;;;5.28;100.00
51287;BME280;37364;46.974;18.916;2023-11-19T11:19:19;151681.28;;;5.29;100.00
51287;BME280;37364;46.974;18.916;2023-11-19T11:21:55;151641.31;;;5.13;100.00
51287;BME280;37364;46.974;18.916;2023-11-19T11:24:49;151658.13;;;5.20;100.00
51287;BME280;37364;46.974;18.916;2023-11-19T11:27:50;151661.94;;;5.21;100.00
51287;BME280;37364;46.974;18.916;2023-11-19T11:30:49;151686.44;;;5.31;100.00
51287;BME280;37364;46.974;18.916;2023-11-19T11:34:03;151647.81;;;5.15;100.00
51287;BME280;37364;46.974;18.916;2023-11-19T11:36:49;151678.75;;;5.28;100.00
51287;BME280;37364;46.974;18.916;2023-11-19T11:39:39;151700.66;;;5.37;100.00
51287;BME280;37364;46.974;18.916;2023-11-19T11:42:33;151678.75;;;5.28;100.00
51287;BME280;37364;46.974;18.916;2023-11-19T11:48:30;151749.66;;;5.56;100.00
51287;BME280;37364;46.974;18.916;2023-11-19T11:51:09;151797.41;;;5.75;100.00
51287;BME280;37364;46.974;18.916;2023-11-19T11:53:49;151789.66;;;5.72;100.00
51287;BME280;37364;46.974;18.916;2023-11-19T11:57:05;151731.63;;;5.49;100.00
51287;BME280;37364;46.974;18.916;2023-11-19T11:59:49;151720.00;;;5.44;100.00
51287;BME280;37364;46.974;18.916;2023-11-19T12:02:22;151710.97;;;5.41;100.00
51287;BME280;37364;46.974;18.916;2023-11-19T12:05:15;151757.41;;;5.59;100.00
51287;BME280;37364;46.974;18.916;2023-11-19T12:07:59;151784.50;;;5.70;100.00
51287;BME280;37364;46.974;18.916;2023-11-19T12:10:38;151818.03;;;5.83;100.00
51287;BME280;37364;46.974;18.916;2023-11-19T12:13:21;151799.97;;;5.76;100.00
51287;BME280;37364;46.974;18.916;2023-11-19T12:16:07;151820.66;;;5.84;100.00
51287;BME280;37364;46.974;18.916;2023-11-19T12:18:44;151882.59;;;6.09;100.00
51287;BME280;37364;46.974;18.916;2023-11-19T12:21:40;151876.16;;;6.06;100.00
51287;BME280;37364;46.974;18.916;2023-11-19T12:24:24;151882.59;;;6.09;100.00
51287;BME280;37364;46.974;18.916;2023-11-19T12:27:17;151885.22;;;6.10;100.00
51287;BME280;37364;46.974;18.916;2023-11-19T12:30:25;151889.03;;;6.11;100.00
51287;BME280;37364;46.974;18.916;2023-11-19T12:33:09;151894.25;;;6.13;100.00
51287;BME280;37364;46.974;18.916;2023-11-19T12:35:48;151920.06;;;6.24;100.00
51287;BME280;37364;46.974;18.916;2023-11-19T12:38:57;151851.66;;;5.97;100.00
51287;BME280;37364;46.974;18.916;2023-11-19T12:41:49;151908.41;;;6.19;100.00
51287;BME280;37364;46.974;18.916;2023-11-19T12:44:21;151916.16;;;6.22;100.00
51287;BME280;37364;46.974;18.916;2023-11-19T12:47:03;151961.34;;;6.40;100.00
51287;BME280;37364;46.974;18.916;2023-11-19T12:49:38;152002.69;;;6.57;100.00
51287;BME280;37364;46.974;18.916;2023-11-19T12:52:16;151989.75;;;6.51;100.00
51287;BME280;37364;46.974;18.916;2023-11-19T12:54:50;152015.56;;;6.62;100.00
51287;BME280;37364;46.974;18.916;2023-11-19T12:57:47;152011.66;;;6.60;100.00
51287;BME280;37364;46.974;18.916;2023-11-19T13:00:24;152000.06;;;6.56;100.00
51287;BME280;37364;46.974;18.916;2023-11-19T13:02:59;152020.72;;;6.64;100.00
51287;BME280;37364;46.974;18.916;2023-11-19T13:05:34;152014.28;;;6.61;100.00
51287;BME280;37364;46.974;18.916;2023-11-19T13:08:10;151994.91;;;6.53;100.00
51287;BME280;37364;46.974;18.916;2023-11-19T13:10:59;151976.81;;;6.46;100.00
51287;BME280;37364;46.974;18.916;2023-11-19T13:13:58;151979.41;;;6.47;100.00
51287;BME280;37364;46.974;18.916;2023-11-19T13:16:41;151954.91;;;6.38;100.00
51287;BME280;37364;46.974;18.916;2023-11-19T13:19:19;151988.47;;;6.51;100.00
51287;BME280;37364;46.974;18.916;2023-11-19T13:22:20;151987.13;;;6.50;100.00
51287;BME280;37364;46.974;18.916;2023-11-19T13:25:17;151972.94;;;6.45;100.00
51287;BME280;37364;46.974;18.916;2023-11-19T13:27:56;151971.66;;;6.44;100.00
51287;BME280;37364;46.974;18.916;2023-11-19T13:30:33;151991.03;;;6.52;100.00
51287;BME280;37364;46.974;18.916;2023-11-19T13:33:30;152003.94;;;6.57;100.00
51287;BME280;37364;46.974;18.916;2023-11-19T13:36:12;151992.31;;;6.52;100.00
51287;BME280;37364;46.974;18.916;2023-11-19T13:39:14;151962.63;;;6.41;100.00
51287;BME280;37364;46.974;18.916;2023-11-19T13:41:55;151932.94;;;6.29;100.00
51287;BME280;37364;46.974;18.916;2023-11-19T13:44:53;151962.63;;;6.41;100.00
51287;BME280;37364;46.974;18.916;2023-11-19T13:47:33;151927.75;;;6.27;100.00
51287;BME280;37364;46.974;18.916;2023-11-19T13:50:30;151931.66;;;6.28;100.00
51287;BME280;37364;46.974;18.916;2023-11-19T13:53:11;151905.84;;;6.18;100.00
51287;BME280;37364;46.974;18.916;2023-11-19T13:55:50;151903.25;;;6.17;100.00
51287;BME280;37364;46.974;18.916;2023-11-19T13:58:29;151912.28;;;6.21;100.00
51287;BME280;37364;46.974;18.916;2023-11-19T14:01:11;151905.84;;;6.18;100.00
51287;BME280;37364;46.974;18.916;2023-11-19T14:03:57;151920.06;;;6.24;100.00
51287;BME280;37364;46.974;18.916;2023-11-19T14:06:59;151874.88;;;6.06;100.00
51287;BME280;37364;46.974;18.916;2023-11-19T14:09:37;151892.94;;;6.13;100.00
51287;BME280;37364;46.974;18.916;2023-11-19T14:12:11;151904.56;;;6.18;100.00
51287;BME280;37364;46.974;18.916;2023-11-19T14:14:54;151916.16;;;6.22;100.00